createdAt,value
2023-08-06T00:00:13.288Z,4.83
2023-08-06T00:02:42.594Z,4.63
2023-08-06T00:05:10.062Z,4.90
2023-08-06T00:07:37.324Z,4.70
2023-08-06T00:10:04.683Z,4.80
2023-08-06T00:12:31.980Z,4.83
2023-08-06T00:14:59.161Z,5.17
2023-08-06T00:17:26.432Z,4.63
2023-08-06T00:19:53.714Z,4.67
2023-08-06T00:22:20.992Z,4.87
2023-08-06T00:24:48.192Z,4.70
2023-08-06T00:27:15.447Z,4.27
2023-08-06T00:29:42.684Z,4.83
2023-08-06T00:32:09.951Z,4.93
2023-08-06T00:34:37.170Z,4.83
2023-08-06T00:37:04.488Z,4.13
2023-08-06T00:39:31.738Z,4.50
2023-08-06T00:41:59.419Z,4.60
2023-08-06T00:44:28.778Z,4.30
2023-08-06T00:46:56.699Z,4.47
2023-08-06T00:49:24.203Z,4.30
2023-08-06T00:51:51.963Z,4.57
2023-08-06T00:54:19.498Z,4.60
2023-08-06T00:56:47.090Z,4.17
2023-08-06T00:59:14.543Z,4.50
2023-08-06T01:01:41.760Z,5.23
2023-08-06T01:04:09.135Z,4.43
2023-08-06T01:06:36.442Z,5.03
2023-08-06T01:09:08.558Z,5.07
2023-08-06T01:11:50.200Z,4.43
2023-08-06T01:14:25.571Z,4.13
2023-08-06T01:16:53.104Z,4.67
2023-08-06T01:19:23.003Z,4.73
2023-08-06T01:21:51.273Z,4.87
2023-08-06T01:24:18.771Z,4.80
2023-08-06T01:26:50.153Z,5.10
2023-08-06T01:29:27.006Z,4.13
2023-08-06T01:31:54.947Z,4.83
2023-08-06T01:34:26.097Z,4.27
2023-08-06T01:36:53.946Z,4.47
2023-08-06T01:39:24.306Z,4.53
2023-08-06T01:41:51.762Z,4.97
2023-08-06T01:44:19.580Z,4.27
2023-08-06T01:46:46.980Z,4.10
2023-08-06T01:49:14.185Z,4.53
2023-08-06T01:51:41.470Z,4.43
2023-08-06T01:54:08.776Z,4.30
2023-08-06T01:56:36.061Z,5.07
2023-08-06T01:59:05.199Z,5.20
2023-08-06T02:01:32.790Z,5.00
2023-08-06T02:04:00.039Z,5.07
2023-08-06T02:06:27.302Z,5.97
2023-08-06T02:08:54.607Z,5.50
2023-08-06T02:11:21.813Z,5.47
2023-08-06T02:13:49.139Z,5.60
2023-08-06T02:16:20.281Z,5.50
2023-08-06T02:18:47.627Z,5.83
2023-08-06T02:21:15.054Z,5.30
2023-08-06T02:23:42.781Z,5.37
2023-08-06T02:26:11.284Z,5.40
2023-08-06T02:28:38.490Z,4.83
2023-08-06T02:31:07.966Z,6.03
2023-08-06T02:33:38.036Z,6.03
2023-08-06T02:36:05.874Z,4.93
2023-08-06T02:38:33.589Z,4.93
2023-08-06T02:41:00.983Z,5.03
2023-08-06T02:43:28.236Z,4.87
2023-08-06T02:45:59.001Z,6.10
2023-08-06T02:48:26.505Z,5.20
2023-08-06T02:50:54.226Z,5.43
2023-08-06T02:53:21.504Z,5.63
2023-08-06T02:55:50.606Z,4.60
2023-08-06T02:58:23.602Z,4.90
2023-08-06T03:01:06.161Z,4.73
2023-08-06T03:03:40.561Z,4.50
2023-08-06T03:06:09.125Z,5.50
2023-08-06T03:08:45.482Z,4.83
2023-08-06T03:11:13.229Z,5.27
2023-08-06T03:13:41.492Z,4.80
2023-08-06T03:16:09.352Z,4.60
2023-08-06T03:18:36.702Z,4.97
2023-08-06T03:21:06.400Z,4.50
2023-08-06T03:23:33.976Z,4.57
2023-08-06T03:26:05.136Z,4.50
2023-08-06T03:28:33.896Z,3.97
2023-08-06T03:31:02.762Z,4.90
2023-08-06T03:33:35.997Z,4.90
2023-08-06T03:36:05.687Z,4.53
2023-08-06T03:38:35.024Z,4.50
2023-08-06T03:41:06.576Z,4.73
2023-08-06T03:43:33.910Z,4.77
2023-08-06T03:46:02.660Z,4.33
2023-08-06T03:48:30.060Z,4.27
2023-08-06T03:50:58.082Z,4.60
2023-08-06T03:53:26.767Z,4.40
2023-08-06T03:55:54.234Z,3.57
2023-08-06T03:58:21.476Z,3.70
2023-08-06T04:00:48.721Z,3.73
2023-08-06T04:03:16.139Z,4.40
2023-08-06T04:05:43.730Z,4.07
2023-08-06T04:08:10.903Z,3.50
2023-08-06T04:10:38.157Z,3.83
2023-08-06T04:13:05.516Z,3.57
2023-08-06T04:15:35.352Z,4.07
2023-08-06T04:18:02.628Z,4.10
2023-08-06T04:20:30.554Z,3.53
2023-08-06T04:22:57.808Z,3.70
2023-08-06T04:25:25.121Z,3.60
2023-08-06T04:27:52.430Z,4.10
2023-08-06T04:30:20.393Z,4.00
2023-08-06T04:32:47.714Z,3.07
2023-08-06T04:35:14.994Z,2.97
2023-08-06T04:37:42.734Z,2.67
2023-08-06T04:40:11.320Z,3.00
2023-08-06T04:42:38.796Z,2.77
2023-08-06T04:45:06.388Z,2.97
2023-08-06T04:47:34.191Z,3.50
2023-08-06T04:50:01.473Z,3.20
2023-08-06T04:52:29.415Z,3.30
2023-08-06T04:54:56.846Z,3.23
2023-08-06T04:57:24.062Z,3.20
2023-08-06T04:59:51.371Z,2.80
2023-08-06T05:02:18.648Z,3.37
2023-08-06T05:04:46.062Z,3.30
2023-08-06T05:07:13.309Z,3.50
2023-08-06T05:09:40.961Z,3.00
2023-08-06T05:12:08.448Z,3.37
2023-08-06T05:14:35.657Z,3.17
2023-08-06T05:17:05.365Z,2.87
2023-08-06T05:19:32.592Z,3.10
2023-08-06T05:21:59.858Z,3.23
2023-08-06T05:24:27.129Z,3.87
2023-08-06T05:26:54.367Z,3.50
2023-08-06T05:29:21.720Z,3.20
2023-08-06T05:31:48.902Z,3.60
2023-08-06T05:34:16.195Z,3.40
2023-08-06T05:36:43.378Z,3.67
2023-08-06T05:39:10.815Z,3.43
2023-08-06T05:41:38.058Z,3.67
2023-08-06T05:44:05.338Z,3.93
2023-08-06T05:46:32.682Z,3.80
2023-08-06T05:48:59.893Z,4.10
2023-08-06T05:51:28.487Z,3.50
2023-08-06T05:53:55.843Z,4.10
2023-08-06T05:56:23.074Z,3.67
2023-08-06T05:58:52.537Z,4.13
2023-08-06T06:01:19.825Z,4.00
2023-08-06T06:03:47.296Z,4.07
2023-08-06T06:06:17.069Z,4.00
2023-08-06T06:08:44.634Z,3.80
2023-08-06T06:11:11.825Z,3.87
2023-08-06T06:13:39.094Z,4.00
2023-08-06T06:16:06.477Z,4.53
2023-08-06T06:18:34.201Z,4.00
2023-08-06T06:21:01.451Z,3.60
2023-08-06T06:23:28.887Z,4.00
2023-08-06T06:25:56.844Z,4.20
2023-08-06T06:28:24.415Z,3.73
2023-08-06T06:30:51.711Z,3.93
2023-08-06T06:33:18.945Z,4.07
2023-08-06T06:35:46.172Z,4.50
2023-08-06T06:38:13.364Z,4.00
2023-08-06T06:40:40.605Z,3.93
2023-08-06T06:43:09.239Z,3.87
2023-08-06T06:45:36.577Z,4.00
2023-08-06T06:48:03.975Z,4.60
2023-08-06T06:50:31.379Z,4.50
2023-08-06T06:52:58.556Z,4.20
2023-08-06T06:55:25.853Z,3.67
2023-08-06T06:57:53.047Z,4.00
2023-08-06T07:00:20.475Z,3.80
2023-08-06T07:02:48.060Z,4.27
2023-08-06T07:05:15.297Z,4.27
2023-08-06T07:07:42.586Z,4.00
2023-08-06T07:10:09.883Z,4.60
2023-08-06T07:12:38.013Z,4.30
2023-08-06T07:15:07.836Z,3.93
2023-08-06T07:17:35.218Z,3.17
2023-08-06T07:20:02.520Z,4.40
2023-08-06T07:22:29.692Z,3.80
2023-08-06T07:24:56.961Z,4.47
2023-08-06T07:27:24.300Z,4.33
2023-08-06T07:29:51.576Z,4.30
2023-08-06T07:32:18.814Z,3.97
2023-08-06T07:34:46.080Z,4.23
2023-08-06T07:37:13.374Z,4.37
2023-08-06T07:39:42.853Z,4.50
2023-08-06T07:42:10.122Z,4.30
2023-08-06T07:44:37.495Z,4.90
2023-08-06T07:47:04.800Z,4.60
2023-08-06T07:49:32.045Z,4.13
2023-08-06T07:51:59.285Z,4.70
2023-08-06T07:54:26.547Z,4.63
2023-08-06T07:56:53.766Z,4.60
2023-08-06T07:59:21.302Z,4.30
2023-08-06T08:01:48.632Z,4.27
2023-08-06T08:04:15.917Z,4.43
2023-08-06T08:06:43.517Z,4.13
2023-08-06T08:09:10.794Z,4.20
2023-08-06T08:11:38.147Z,4.57
2023-08-06T08:14:05.508Z,4.33
2023-08-06T08:16:32.764Z,4.13
2023-08-06T08:19:00.213Z,4.10
2023-08-06T08:21:27.549Z,4.30
2023-08-06T08:23:54.842Z,3.70
2023-08-06T08:26:22.085Z,3.67
2023-08-06T08:28:51.190Z,3.67
2023-08-06T08:31:18.471Z,3.53
2023-08-06T08:33:45.832Z,3.63
2023-08-06T08:36:13.031Z,3.37
2023-08-06T08:38:40.251Z,3.87
2023-08-06T08:41:07.670Z,3.43
2023-08-06T08:43:35.274Z,3.00
2023-08-06T08:46:03.839Z,3.43
2023-08-06T08:48:31.285Z,2.93
2023-08-06T08:50:59.157Z,3.43
2023-08-06T08:53:26.821Z,3.20
2023-08-06T08:55:54.632Z,2.80
2023-08-06T08:58:21.984Z,2.80
2023-08-06T09:00:49.480Z,2.90
2023-08-06T09:03:17.995Z,2.50
2023-08-06T09:05:51.569Z,2.80
2023-08-06T09:08:20.437Z,2.53
2023-08-06T09:10:50.723Z,2.90
2023-08-06T09:13:18.188Z,2.77
2023-08-06T09:15:45.665Z,2.70
2023-08-06T09:18:13.541Z,2.53
2023-08-06T09:20:41.216Z,2.60
2023-08-06T09:23:09.345Z,2.60
2023-08-06T09:25:39.488Z,2.70
2023-08-06T09:28:06.802Z,2.50
2023-08-06T09:30:35.269Z,2.90
2023-08-06T09:33:02.825Z,2.87
2023-08-06T09:35:31.588Z,2.90
2023-08-06T09:38:08.709Z,2.70
2023-08-06T09:40:36.037Z,2.80
2023-08-06T09:43:06.123Z,2.67
2023-08-06T09:45:37.769Z,2.70
2023-08-06T09:48:06.394Z,3.10
2023-08-06T09:50:34.643Z,2.97
2023-08-06T09:53:02.552Z,3.30
2023-08-06T09:55:29.859Z,2.93
2023-08-06T09:57:57.545Z,2.97
2023-08-06T10:00:25.001Z,3.07
2023-08-06T10:02:57.030Z,3.10
2023-08-06T10:05:25.574Z,2.90
2023-08-06T10:07:52.965Z,3.10
2023-08-06T10:10:23.337Z,2.93
2023-08-06T10:12:53.159Z,3.07
2023-08-06T10:15:23.674Z,3.33
2023-08-06T10:17:52.987Z,2.67
2023-08-06T10:20:22.210Z,2.80
2023-08-06T10:23:01.318Z,2.80
2023-08-06T10:25:32.424Z,2.90
2023-08-06T10:27:59.813Z,2.87
2023-08-06T10:30:30.558Z,2.63
2023-08-06T10:33:01.238Z,2.83
2023-08-06T10:35:37.780Z,2.93
2023-08-06T10:38:06.215Z,2.80
2023-08-06T10:40:34.659Z,2.80
2023-08-06T10:43:05.379Z,2.77
2023-08-06T10:45:35.676Z,2.90
2023-08-06T10:48:03.904Z,2.70
2023-08-06T10:50:32.482Z,2.80
2023-08-06T10:53:05.901Z,2.57
2023-08-06T10:55:33.674Z,2.70
2023-08-06T10:58:01.044Z,2.80
2023-08-06T11:00:28.347Z,2.90
2023-08-06T11:02:56.423Z,2.43
2023-08-06T11:05:23.853Z,2.80
2023-08-06T11:07:52.553Z,3.00
2023-08-06T11:10:19.760Z,2.60
2023-08-06T11:12:47.165Z,2.60
2023-08-06T11:15:14.527Z,2.37
2023-08-06T11:17:42.632Z,2.50
2023-08-06T11:20:10.274Z,2.43
2023-08-06T11:22:38.345Z,2.40
2023-08-06T11:25:06.375Z,2.27
2023-08-06T11:27:33.646Z,2.20
2023-08-06T11:30:01.056Z,2.17
2023-08-06T11:32:29.061Z,2.40
2023-08-06T11:34:56.786Z,2.30
2023-08-06T11:37:27.598Z,2.30
2023-08-06T11:39:55.019Z,2.90
2023-08-06T11:42:22.335Z,2.10
2023-08-06T11:44:49.714Z,2.20
2023-08-06T11:47:18.177Z,2.30
2023-08-06T11:49:49.827Z,2.13
2023-08-06T11:52:20.491Z,2.00
2023-08-06T11:54:48.501Z,2.20
2023-08-06T11:57:18.150Z,2.60
2023-08-06T11:59:45.867Z,2.77
2023-08-06T12:02:13.317Z,2.73
2023-08-06T12:05:00.245Z,2.67
2023-08-06T12:07:32.361Z,2.50
2023-08-06T12:10:00.161Z,2.80
2023-08-06T12:12:27.491Z,2.60
2023-08-06T12:14:54.775Z,2.50
2023-08-06T12:17:22.042Z,2.50
2023-08-06T12:19:49.395Z,2.37
2023-08-06T12:22:16.989Z,2.90
2023-08-06T12:24:44.809Z,2.20
2023-08-06T12:27:12.160Z,2.70
2023-08-06T12:29:43.877Z,2.30
2023-08-06T12:32:11.837Z,2.17
2023-08-06T12:34:52.101Z,2.53
2023-08-06T12:37:20.923Z,2.57
2023-08-06T12:39:48.409Z,2.60
2023-08-06T12:42:15.777Z,2.30
2023-08-06T12:44:42.969Z,2.57
2023-08-06T12:47:10.220Z,2.60
2023-08-06T12:49:37.710Z,2.57
2023-08-06T12:52:07.546Z,2.87
2023-08-06T12:54:37.932Z,2.57
2023-08-06T12:57:05.750Z,2.90
2023-08-06T12:59:34.252Z,2.70
2023-08-06T13:02:02.119Z,2.90
2023-08-06T13:04:30.082Z,2.80
2023-08-06T13:06:57.441Z,2.70
2023-08-06T13:09:25.841Z,2.77
2023-08-06T13:11:53.420Z,2.60
2023-08-06T13:14:20.983Z,2.70
2023-08-06T13:16:48.333Z,2.40
2023-08-06T13:19:15.658Z,2.40
2023-08-06T13:21:42.867Z,2.37
2023-08-06T13:24:10.784Z,2.27
2023-08-06T13:26:38.013Z,2.20
2023-08-06T13:29:05.309Z,2.23
2023-08-06T13:31:33.972Z,2.40
2023-08-06T13:34:01.286Z,2.33
2023-08-06T13:36:28.884Z,2.20
2023-08-06T13:38:56.789Z,2.37
2023-08-06T13:41:24.385Z,2.03
2023-08-06T13:44:11.737Z,2.27
2023-08-06T13:46:39.404Z,2.50
2023-08-06T13:49:06.611Z,2.20
2023-08-06T13:51:35.105Z,2.60
2023-08-06T13:54:02.364Z,2.10
2023-08-06T13:56:33.259Z,2.50
2023-08-06T13:59:00.810Z,2.23
2023-08-06T14:01:43.098Z,2.17
2023-08-06T14:04:15.406Z,2.40
2023-08-06T14:06:42.812Z,2.00
2023-08-06T14:09:12.283Z,2.27
2023-08-06T14:11:39.616Z,2.20
2023-08-06T14:14:06.910Z,2.03
2023-08-06T14:16:34.401Z,2.30
2023-08-06T14:19:01.707Z,2.03
2023-08-06T14:21:29.062Z,2.27
2023-08-06T14:23:56.300Z,2.03
2023-08-06T14:26:23.467Z,2.13
2023-08-06T14:28:55.392Z,2.23
2023-08-06T14:31:22.818Z,2.43
2023-08-06T14:33:50.170Z,2.60
2023-08-06T14:36:17.560Z,2.37
2023-08-06T14:38:57.884Z,2.40
2023-08-06T14:41:27.435Z,2.37
2023-08-06T14:43:55.464Z,2.40
2023-08-06T14:46:22.831Z,1.97
2023-08-06T14:48:50.207Z,2.40
2023-08-06T14:51:20.036Z,2.40
2023-08-06T14:53:47.333Z,2.57
2023-08-06T14:56:14.746Z,2.83
2023-08-06T14:58:42.957Z,2.97
2023-08-06T15:01:10.412Z,2.53
2023-08-06T15:03:37.802Z,2.43
2023-08-06T15:06:05.141Z,2.27
2023-08-06T15:08:32.467Z,2.60
2023-08-06T15:11:02.951Z,2.53
2023-08-06T15:13:31.215Z,2.83
2023-08-06T15:15:58.576Z,2.40
2023-08-06T15:18:25.826Z,2.57
2023-08-06T15:20:53.136Z,2.63
2023-08-06T15:23:20.882Z,2.60
2023-08-06T15:25:48.273Z,2.67
2023-08-06T15:28:15.561Z,2.70
2023-08-06T15:30:48.664Z,3.13
2023-08-06T15:33:16.096Z,2.63
2023-08-06T15:35:43.336Z,2.87
2023-08-06T15:38:10.555Z,3.10
2023-08-06T15:40:37.783Z,3.60
2023-08-06T15:43:05.019Z,3.10
2023-08-06T15:45:32.402Z,3.30
2023-08-06T15:47:59.672Z,3.30
2023-08-06T15:50:27.105Z,3.30
2023-08-06T15:52:55.448Z,3.37
2023-08-06T15:55:22.690Z,3.63
2023-08-06T15:57:49.897Z,3.43
2023-08-06T16:00:17.154Z,3.40
2023-08-06T16:02:44.406Z,3.80
2023-08-06T16:05:12.156Z,4.13
2023-08-06T16:07:39.546Z,4.50
2023-08-06T16:10:07.108Z,4.33
2023-08-06T16:12:35.365Z,4.33
2023-08-06T16:15:03.115Z,4.43
2023-08-06T16:17:30.325Z,4.77
2023-08-06T16:19:57.588Z,4.47
2023-08-06T16:22:24.774Z,4.57
2023-08-06T16:24:52.620Z,4.90
2023-08-06T16:27:19.795Z,5.00
2023-08-06T16:29:49.128Z,4.27
2023-08-06T16:32:16.349Z,4.90
2023-08-06T16:34:43.668Z,5.07
2023-08-06T16:37:11.410Z,5.60
2023-08-06T16:39:39.065Z,5.20
2023-08-06T16:42:07.646Z,5.30
2023-08-06T16:44:35.045Z,5.53
2023-08-06T16:47:02.568Z,5.53
2023-08-06T16:49:29.813Z,5.63
2023-08-06T16:51:57.109Z,6.03
2023-08-06T16:54:24.524Z,5.77
2023-08-06T16:56:51.993Z,6.30
2023-08-06T16:59:19.452Z,6.33
2023-08-06T17:01:46.638Z,5.77
2023-08-06T17:04:13.998Z,7.03
2023-08-06T17:06:41.216Z,7.00
2023-08-06T17:09:08.508Z,6.67
2023-08-06T17:11:35.883Z,7.17
2023-08-06T17:14:03.666Z,6.90
2023-08-06T17:16:31.473Z,7.43
2023-08-06T17:18:59.127Z,7.27
2023-08-06T17:21:26.320Z,7.10
2023-08-06T17:23:53.601Z,6.80
2023-08-06T17:26:21.020Z,7.03
2023-08-06T17:28:49.021Z,7.53
2023-08-06T17:31:16.411Z,7.20
2023-08-06T17:33:45.193Z,7.17
2023-08-06T17:36:12.446Z,7.00
2023-08-06T17:38:39.645Z,6.67
2023-08-06T17:41:06.989Z,6.57
2023-08-06T17:43:34.273Z,6.73
2023-08-06T17:46:01.651Z,6.83
2023-08-06T17:48:30.741Z,6.43
2023-08-06T17:50:58.097Z,6.70
2023-08-06T17:53:25.634Z,6.50
2023-08-06T17:55:52.980Z,6.47
2023-08-06T17:58:20.349Z,6.83
2023-08-06T18:00:49.884Z,7.00
2023-08-06T18:03:18.362Z,7.30
2023-08-06T18:05:45.930Z,7.03
2023-08-06T18:08:13.326Z,6.50
2023-08-06T18:10:42.307Z,6.77
2023-08-06T18:13:10.198Z,6.27
2023-08-06T18:15:37.742Z,6.30
2023-08-06T18:18:05.090Z,6.37
2023-08-06T18:20:32.364Z,4.87
2023-08-06T18:22:59.630Z,2.17
2023-08-06T18:25:26.948Z,2.07
2023-08-06T18:27:54.154Z,1.60
2023-08-06T18:30:21.398Z,1.70
2023-08-06T18:32:48.656Z,2.20
2023-08-06T18:35:16.155Z,2.20
2023-08-06T18:37:43.764Z,2.60
2023-08-06T18:40:11.331Z,2.30
2023-08-06T18:42:42.686Z,2.37
2023-08-06T18:45:10.599Z,2.80
2023-08-06T18:47:37.898Z,2.90
2023-08-06T18:50:05.299Z,3.20
2023-08-06T18:52:32.538Z,3.13
2023-08-06T18:54:59.798Z,3.03
2023-08-06T18:57:30.109Z,2.90
2023-08-06T18:59:57.674Z,2.63
2023-08-06T19:02:24.931Z,2.47
2023-08-06T19:04:53.090Z,3.00
2023-08-06T19:07:20.522Z,2.80
2023-08-06T19:09:48.024Z,2.70
2023-08-06T19:12:16.361Z,2.70
2023-08-06T19:14:43.614Z,2.60
2023-08-06T19:17:10.851Z,2.60
2023-08-06T19:19:38.125Z,2.40
2023-08-06T19:22:05.478Z,2.73
2023-08-06T19:24:32.685Z,3.00
2023-08-06T19:27:00.270Z,2.60
2023-08-06T19:29:28.470Z,2.77
2023-08-06T19:32:05.788Z,2.93
2023-08-06T19:34:33.909Z,2.67
2023-08-06T19:37:01.195Z,2.87
2023-08-06T19:39:28.504Z,2.90
2023-08-06T19:41:56.133Z,3.07
2023-08-06T19:44:23.786Z,3.00
2023-08-06T19:46:51.049Z,2.60
2023-08-06T19:49:18.284Z,2.70
2023-08-06T19:51:46.039Z,2.67
2023-08-06T19:54:13.301Z,2.40
2023-08-06T19:56:40.650Z,6.90
2023-08-06T19:59:07.919Z,3.20
2023-08-06T20:04:20.833Z,2.80
2023-08-06T20:06:51.632Z,3.07
2023-08-06T20:09:19.364Z,2.70
2023-08-06T20:11:46.630Z,3.07
2023-08-06T20:14:13.816Z,3.07
2023-08-06T20:16:41.143Z,2.80
2023-08-06T20:19:08.441Z,3.27
2023-08-06T20:21:35.757Z,2.30
2023-08-06T20:24:03.772Z,2.60
2023-08-06T20:26:31.005Z,2.53
2023-08-06T20:28:58.882Z,2.43
2023-08-06T20:31:26.207Z,2.67
2023-08-06T20:33:53.487Z,2.70
2023-08-06T20:36:20.794Z,2.57
2023-08-06T20:38:48.072Z,2.70
2023-08-06T20:41:15.897Z,3.00
2023-08-06T20:43:43.154Z,2.60
2023-08-06T20:46:10.450Z,2.60
2023-08-06T20:48:37.730Z,2.30
2023-08-06T20:51:04.993Z,2.70
2023-08-06T20:53:33.572Z,2.57
2023-08-06T20:56:01.035Z,2.83
2023-08-06T20:58:28.685Z,2.77
2023-08-06T21:00:56.956Z,2.37
2023-08-06T21:03:24.844Z,2.40
2023-08-06T21:05:58.856Z,2.87
2023-08-06T21:08:26.523Z,2.90
2023-08-06T21:10:53.803Z,2.70
2023-08-06T21:13:21.121Z,2.77
2023-08-06T21:15:55.437Z,2.47
2023-08-06T21:18:22.918Z,2.80
2023-08-06T21:20:54.357Z,3.10
2023-08-06T21:23:25.611Z,2.97
2023-08-06T21:26:06.183Z,2.60
2023-08-06T21:28:34.711Z,2.73
2023-08-06T21:31:02.791Z,2.90
2023-08-06T21:33:31.349Z,2.77
2023-08-06T21:36:02.281Z,2.60
2023-08-06T21:38:29.827Z,2.43
2023-08-06T21:41:05.299Z,2.60
2023-08-06T21:43:33.932Z,2.73
2023-08-06T21:46:05.105Z,2.43
2023-08-06T21:48:32.818Z,2.57
2023-08-06T21:51:07.564Z,2.90
2023-08-06T21:53:35.618Z,2.47
2023-08-06T21:56:06.760Z,2.00
2023-08-06T21:58:34.783Z,2.80
2023-08-06T22:01:02.609Z,2.27
2023-08-06T22:03:29.939Z,2.40
2023-08-06T22:05:57.253Z,2.60
2023-08-06T22:08:24.967Z,2.50
2023-08-06T22:10:52.150Z,2.40
2023-08-06T22:13:38.068Z,2.30
2023-08-06T22:16:05.935Z,2.23
2023-08-06T22:18:34.597Z,1.90
2023-08-06T22:21:01.848Z,2.30
2023-08-06T22:23:29.183Z,2.27
2023-08-06T22:25:56.740Z,2.10
2023-08-06T22:28:24.839Z,2.10
2023-08-06T22:30:52.682Z,1.87
2023-08-06T22:33:20.195Z,2.03
2023-08-06T22:35:47.647Z,1.97
2023-08-06T22:38:15.090Z,2.10
2023-08-06T22:40:42.366Z,2.30
2023-08-06T22:43:09.835Z,1.73
2023-08-06T22:45:37.105Z,1.90
2023-08-06T22:48:04.704Z,2.13
2023-08-06T22:50:31.997Z,2.33
2023-08-06T22:52:59.279Z,1.90
2023-08-06T22:55:56.300Z,2.00
2023-08-06T22:58:13.683Z,2.03
2023-08-06T23:00:40.907Z,2.10
2023-08-06T23:03:11.337Z,2.10
2023-08-06T23:05:40.727Z,1.80
2023-08-06T23:08:08.811Z,2.23
2023-08-06T23:10:36.113Z,2.13
2023-08-06T23:13:03.636Z,2.00
2023-08-06T23:15:30.453Z,2.13
2023-08-06T23:17:57.312Z,2.10
2023-08-06T23:20:24.475Z,2.17
2023-08-06T23:22:51.290Z,2.33
2023-08-06T23:25:18.112Z,1.97
2023-08-06T23:27:44.944Z,2.17
2023-08-06T23:30:12.336Z,2.60
2023-08-06T23:32:41.714Z,2.27
2023-08-06T23:35:09.665Z,2.73
2023-08-06T23:37:36.872Z,2.40
2023-08-06T23:40:04.300Z,2.73
2023-08-06T23:42:31.214Z,2.67
2023-08-06T23:44:58.085Z,2.60
2023-08-06T23:47:44.548Z,2.70
2023-08-06T23:50:11.493Z,2.77
2023-08-06T23:52:38.423Z,2.33
2023-08-06T23:55:05.505Z,2.60
2023-08-06T23:57:32.644Z,2.50
2023-08-06T23:59:59.595Z,2.53
